Time;durP1;ratioP1;P1;durP2;ratioP2;P2;SDS_P1;SDS_P2;PMS_P1;PMS_P2;Temp;Humidity;BMP_temperature;BMP_pressure;BME280_temperature;BME280_humidity;BME280_pressure;Samples;Min_cycle;Max_cycle;Signal;HPM_P1;HPM_P2
2021/10/17 00:00:31;;;;;;;2.70;1.80;;;5.20;99.90;;;;;;4984785;28;20220;-76
2021/10/17 00:02:57;;;;;;;3.20;1.70;;;5.10;99.90;;;;;;4984661;28;20214;-76
2021/10/17 00:05:26;;;;;;;3.37;2.10;;;5.00;99.90;;;;;;4983303;28;20212;-75
2021/10/17 00:07:51;;;;;;;2.63;2.00;;;5.00;99.90;;;;;;4984318;28;20180;-76
2021/10/17 00:10:20;;;;;;;4.70;2.10;;;4.90;99.90;;;;;;4984309;28;20258;-76
2021/10/17 00:12:45;;;;;;;3.00;1.73;;;4.90;99.90;;;;;;4984369;28;20189;-76
2021/10/17 00:15:14;;;;;;;2.63;2.10;;;4.80;99.90;;;;;;4984746;28;20192;-75
2021/10/17 00:17:41;;;;;;;3.73;2.20;;;4.70;99.90;;;;;;4999295;28;20211;-75
2021/10/17 00:20:09;;;;;;;3.63;1.97;;;4.70;99.90;;;;;;4984426;28;20187;-76
2021/10/17 00:22:35;;;;;;;4.37;2.17;;;4.60;99.90;;;;;;4984138;28;20188;-75
2021/10/17 00:25:00;;;;;;;2.67;1.90;;;4.50;99.90;;;;;;4982885;28;20198;-76
2021/10/17 00:27:26;;;;;;;4.10;2.10;;;4.50;99.90;;;;;;4983480;28;20734;-75
2021/10/17 00:29:52;;;;;;;2.70;1.83;;;4.50;99.90;;;;;;4984107;28;20184;-75
2021/10/17 00:32:17;;;;;;;2.27;1.60;;;4.50;99.90;;;;;;4983054;28;20188;-76
2021/10/17 00:34:44;;;;;;;4.00;1.63;;;4.60;99.90;;;;;;4984214;28;20188;-76
2021/10/17 00:37:10;;;;;;;3.10;1.50;;;4.50;99.90;;;;;;4983975;28;20761;-75
2021/10/17 00:39:36;;;;;;;2.20;1.80;;;4.40;99.90;;;;;;4983961;28;20192;-75
2021/10/17 00:42:04;;;;;;;3.00;1.60;;;4.40;99.90;;;;;;4984521;28;20291;-75
2021/10/17 00:44:30;;;;;;;2.40;1.63;;;4.40;99.90;;;;;;4983640;28;20191;-75
2021/10/17 00:46:56;;;;;;;4.90;1.50;;;4.40;99.90;;;;;;4984307;28;20208;-75
2021/10/17 00:49:22;;;;;;;2.93;1.63;;;4.40;99.90;;;;;;4983709;28;20279;-76
2021/10/17 00:51:47;;;;;;;2.27;1.43;;;4.40;99.90;;;;;;4983913;28;20238;-76
2021/10/17 00:54:14;;;;;;;2.70;1.50;;;4.40;99.90;;;;;;4983562;28;20629;-75
2021/10/17 00:56:41;;;;;;;2.43;1.70;;;4.30;99.90;;;;;;4982655;28;20222;-76
2021/10/17 00:59:08;;;;;;;3.50;2.10;;;4.30;99.90;;;;;;4983557;28;20184;-75
2021/10/17 01:01:35;;;;;;;2.57;1.50;;;4.30;99.90;;;;;;4983754;28;20293;-76
2021/10/17 01:04:01;;;;;;;1.57;1.40;;;4.20;99.90;;;;;;4983727;28;21050;-76
2021/10/17 01:06:27;;;;;;;3.40;1.40;;;4.20;99.90;;;;;;4984270;28;20199;-76
2021/10/17 01:08:54;;;;;;;4.50;1.80;;;4.20;99.90;;;;;;4983373;28;20180;-76
2021/10/17 01:11:19;;;;;;;3.67;1.53;;;4.20;99.90;;;;;;4984303;28;20192;-75
2021/10/17 01:13:45;;;;;;;3.07;1.60;;;4.40;99.90;;;;;;4990022;28;20188;-76
2021/10/17 01:16:10;;;;;;;4.77;1.70;;;4.40;99.90;;;;;;4990338;28;20219;-73
2021/10/17 01:18:36;;;;;;;2.00;1.70;;;4.50;99.90;;;;;;4990135;28;20184;-76
2021/10/17 01:21:02;;;;;;;2.67;1.77;;;4.50;99.90;;;;;;4989941;28;20195;-76
2021/10/17 01:23:28;;;;;;;3.60;1.60;;;4.50;99.90;;;;;;4989835;28;20674;-76
2021/10/17 01:25:53;;;;;;;3.47;1.50;;;4.50;99.90;;;;;;4990050;28;20200;-76
2021/10/17 01:28:19;;;;;;;2.10;1.33;;;4.50;99.90;;;;;;4989667;28;20555;-76
2021/10/17 01:30:45;;;;;;;3.53;1.30;;;4.50;99.90;;;;;;4989636;28;20184;-75
2021/10/17 01:33:11;;;;;;;2.80;1.73;;;4.50;99.90;;;;;;4988351;28;20199;-76
2021/10/17 01:35:37;;;;;;;3.30;1.70;;;4.50;99.90;;;;;;4989997;28;20219;-75
2021/10/17 01:38:04;;;;;;;3.10;1.50;;;4.50;99.90;;;;;;4988568;28;20305;-76
2021/10/17 01:40:30;;;;;;;3.83;1.40;;;4.60;99.90;;;;;;4990067;28;20319;-74
2021/10/17 01:42:56;;;;;;;2.40;1.30;;;4.70;99.90;;;;;;4989737;28;20653;-76
2021/10/17 01:45:22;;;;;;;2.67;1.80;;;4.70;99.90;;;;;;4988631;28;20227;-76
2021/10/17 01:47:49;;;;;;;1.93;1.50;;;4.80;99.90;;;;;;4990066;28;20192;-75
2021/10/17 01:50:15;;;;;;;2.70;1.40;;;4.90;99.90;;;;;;4989664;28;20219;-74
2021/10/17 01:52:41;;;;;;;4.40;1.53;;;4.90;99.90;;;;;;4989986;28;20192;-76
2021/10/17 01:55:07;;;;;;;3.07;1.60;;;4.90;99.90;;;;;;4989735;28;20264;-76
2021/10/17 01:57:32;;;;;;;2.93;1.53;;;4.90;99.90;;;;;;4988689;28;20219;-74
2021/10/17 01:59:58;;;;;;;3.67;1.80;;;4.90;99.90;;;;;;4990165;28;20192;-75
2021/10/17 02:02:24;;;;;;;3.23;1.83;;;4.90;99.90;;;;;;4991920;28;20647;-75
2021/10/17 02:04:50;;;;;;;5.10;1.60;;;4.90;99.90;;;;;;4989631;28;20191;-75
2021/10/17 02:07:16;;;;;;;6.33;1.70;;;4.90;99.90;;;;;;4989994;28;20204;-76
2021/10/17 02:09:41;;;;;;;4.57;1.63;;;4.90;99.90;;;;;;4989809;28;20188;-76
2021/10/17 02:12:07;;;;;;;4.73;1.90;;;5.00;99.90;;;;;;4989653;28;20195;-74
2021/10/17 02:14:34;;;;;;;3.17;1.53;;;5.10;99.90;;;;;;4991013;28;20191;-74
2021/10/17 02:17:00;;;;;;;2.43;1.60;;;5.10;99.90;;;;;;4989621;28;20211;-73
2021/10/17 02:19:26;;;;;;;2.23;1.20;;;5.20;99.90;;;;;;4990030;28;20595;-76
2021/10/17 02:21:51;;;;;;;2.73;1.33;;;5.20;99.90;;;;;;4990030;28;20244;-77
2021/10/17 02:24:17;;;;;;;1.80;1.07;;;5.20;99.90;;;;;;4986178;28;20192;-76
2021/10/17 02:26:42;;;;;;;3.17;1.20;;;5.20;99.90;;;;;;4987721;28;20247;-77
2021/10/17 02:29:08;;;;;;;2.20;1.17;;;5.20;99.90;;;;;;4987295;28;20203;-77
2021/10/17 02:31:33;;;;;;;4.47;1.53;;;5.20;99.90;;;;;;4986721;28;20184;-76
2021/10/17 02:33:59;;;;;;;2.33;1.50;;;5.30;99.90;;;;;;4986527;28;20275;-75
2021/10/17 02:36:25;;;;;;;1.40;1.20;;;5.40;99.90;;;;;;4986953;28;20321;-76
2021/10/17 02:38:50;;;;;;;1.60;1.20;;;5.40;99.90;;;;;;4986801;28;20873;-77
2021/10/17 02:41:16;;;;;;;1.93;1.30;;;5.40;99.90;;;;;;4986914;28;20268;-77
2021/10/17 02:43:41;;;;;;;2.73;1.17;;;5.40;99.90;;;;;;4986315;28;20203;-77
2021/10/17 02:46:07;;;;;;;3.77;1.50;;;5.50;99.90;;;;;;4986546;28;20204;-75
2021/10/17 02:48:32;;;;;;;2.90;1.33;;;5.50;99.90;;;;;;4986440;28;20632;-76
2021/10/17 02:50:58;;;;;;;2.07;1.17;;;5.50;99.90;;;;;;4986664;28;20262;-76
2021/10/17 02:53:23;;;;;;;2.40;1.30;;;5.50;99.90;;;;;;4986531;28;20266;-74
2021/10/17 02:55:49;;;;;;;2.80;1.30;;;5.50;99.90;;;;;;4986825;28;20292;-75
2021/10/17 02:58:15;;;;;;;2.17;1.40;;;5.50;99.90;;;;;;4986945;28;20188;-77
2021/10/17 03:00:41;;;;;;;2.43;1.60;;;5.60;99.90;;;;;;4986701;28;20184;-77
2021/10/17 03:03:06;;;;;;;3.77;1.63;;;5.60;99.90;;;;;;4986779;28;20192;-76
2021/10/17 03:05:32;;;;;;;3.00;1.77;;;5.60;99.90;;;;;;4986630;28;20640;-75
2021/10/17 03:07:57;;;;;;;1.77;1.30;;;5.60;99.90;;;;;;4985492;28;20250;-77
2021/10/17 03:10:23;;;;;;;3.33;1.40;;;5.60;99.90;;;;;;4986477;28;20843;-76
2021/10/17 03:12:50;;;;;;;1.77;1.60;;;5.60;99.90;;;;;;4986833;28;20203;-77
2021/10/17 03:15:15;;;;;;;1.90;1.37;;;5.60;99.90;;;;;;4986553;28;20219;-76
2021/10/17 03:17:41;;;;;;;4.37;1.67;;;5.70;99.90;;;;;;4985160;28;20215;-76
2021/10/17 03:20:07;;;;;;;4.47;1.43;;;5.70;99.90;;;;;;4986756;28;20187;-76
2021/10/17 03:22:33;;;;;;;2.53;1.50;;;5.70;99.90;;;;;;4986644;28;20180;-77
2021/10/17 03:24:58;;;;;;;4.17;1.80;;;5.80;99.90;;;;;;4986298;28;20254;-76
2021/10/17 03:27:24;;;;;;;2.37;1.67;;;5.80;99.90;;;;;;4986717;28;20192;-74
2021/10/17 03:29:50;;;;;;;3.67;1.77;;;5.80;99.90;;;;;;4985048;28;20761;-76
2021/10/17 03:32:15;;;;;;;3.40;1.40;;;5.80;99.90;;;;;;4986609;28;20219;-77
2021/10/17 03:34:41;;;;;;;1.77;1.13;;;5.80;99.90;;;;;;4986448;28;20184;-75
2021/10/17 03:37:06;;;;;;;3.10;1.60;;;5.80;99.90;;;;;;4987245;28;20674;-76
2021/10/17 03:39:32;;;;;;;3.50;1.87;;;5.80;99.90;;;;;;4987521;28;20201;-75
2021/10/17 03:41:57;;;;;;;2.20;1.47;;;5.90;99.90;;;;;;4987171;28;20267;-76
2021/10/17 03:44:23;;;;;;;2.53;1.40;;;6.00;99.90;;;;;;4986969;28;20234;-76
2021/10/17 03:46:48;;;;;;;2.47;1.13;;;6.00;99.90;;;;;;4986599;28;20215;-76
2021/10/17 03:49:14;;;;;;;3.50;1.60;;;6.00;99.90;;;;;;4986452;28;20678;-76
2021/10/17 03:51:39;;;;;;;1.47;1.33;;;6.00;99.90;;;;;;4986349;28;20199;-77
2021/10/17 03:54:05;;;;;;;2.77;1.27;;;6.00;99.90;;;;;;4985003;28;20188;-77
2021/10/17 03:56:30;;;;;;;5.07;1.90;;;6.10;99.90;;;;;;4986489;28;20224;-77
2021/10/17 03:58:56;;;;;;;3.50;1.70;;;6.10;99.90;;;;;;4986344;28;20192;-77
2021/10/17 04:01:22;;;;;;;3.40;1.80;;;6.10;99.90;;;;;;4986049;28;20203;-77
2021/10/17 04:03:47;;;;;;;2.97;1.40;;;6.20;99.90;;;;;;4986099;28;20242;-76
2021/10/17 04:06:13;;;;;;;3.23;1.60;;;6.20;99.90;;;;;;4985050;28;20208;-77
2021/10/17 04:08:39;;;;;;;3.83;1.90;;;6.20;99.90;;;;;;4985987;28;21208;-77
2021/10/17 04:11:04;;;;;;;1.97;1.47;;;6.20;99.90;;;;;;4985829;28;20192;-76
2021/10/17 04:13:30;;;;;;;5.27;1.80;;;6.30;99.90;;;;;;4984880;28;21283;-77
2021/10/17 04:15:56;;;;;;;3.27;1.37;;;6.30;99.90;;;;;;4986115;28;20734;-76
2021/10/17 04:18:21;;;;;;;5.53;2.10;;;6.30;99.90;;;;;;4985995;28;20188;-77
2021/10/17 04:20:47;;;;;;;2.90;1.40;;;6.30;99.90;;;;;;4986089;28;20651;-77
2021/10/17 04:23:12;;;;;;;4.50;1.97;;;6.40;99.90;;;;;;4984446;28;20195;-76
2021/10/17 04:25:38;;;;;;;4.83;1.80;;;6.40;99.90;;;;;;4985929;28;20238;-77
2021/10/17 04:28:04;;;;;;;3.93;1.80;;;6.40;99.90;;;;;;4984096;28;20192;-77
2021/10/17 04:30:30;;;;;;;3.33;2.03;;;6.40;99.90;;;;;;4985666;28;20191;-76
2021/10/17 04:32:55;;;;;;;5.10;2.10;;;6.40;99.90;;;;;;4985144;28;20196;-77
2021/10/17 04:35:21;;;;;;;2.90;1.80;;;6.40;99.90;;;;;;4985826;28;20215;-77
2021/10/17 04:37:47;;;;;;;3.67;1.77;;;6.40;99.90;;;;;;4985409;28;20219;-77
2021/10/17 04:40:12;;;;;;;4.03;1.90;;;6.50;99.90;;;;;;4985699;28;20192;-76
2021/10/17 04:42:38;;;;;;;2.97;1.57;;;6.50;99.90;;;;;;4985110;28;20275;-76
2021/10/17 04:45:05;;;;;;;3.70;2.00;;;6.50;99.90;;;;;;4985228;28;20211;-77
2021/10/17 04:47:31;;;;;;;2.87;1.73;;;6.50;99.90;;;;;;4984420;28;20196;-76
2021/10/17 04:49:57;;;;;;;4.27;1.87;;;6.50;99.90;;;;;;4985273;28;20275;-77
2021/10/17 04:52:22;;;;;;;4.57;2.03;;;6.60;99.90;;;;;;4985339;28;20250;-76
2021/10/17 04:54:48;;;;;;;3.20;1.83;;;6.50;99.90;;;;;;5000123;28;20199;-77
2021/10/17 04:57:14;;;;;;;4.07;1.80;;;6.60;99.90;;;;;;4985268;28;20212;-76
2021/10/17 04:59:39;;;;;;;3.37;2.00;;;6.60;99.90;;;;;;4983734;28;20207;-77
2021/10/17 05:02:07;;;;;;;3.77;2.30;;;6.60;99.90;;;;;;4983899;28;20275;-77
2021/10/17 05:04:35;;;;;;;4.03;2.03;;;6.60;99.90;;;;;;4985269;28;20638;-77
2021/10/17 05:07:01;;;;;;;2.80;1.80;;;6.60;99.90;;;;;;4985450;28;20203;-77
2021/10/17 05:09:27;;;;;;;4.17;2.40;;;6.60;99.90;;;;;;4985227;28;21021;-77
2021/10/17 05:11:52;;;;;;;3.23;2.17;;;6.70;99.90;;;;;;4985519;28;20184;-76
2021/10/17 05:14:18;;;;;;;3.60;2.33;;;6.60;99.90;;;;;;4985256;28;20192;-77
2021/10/17 05:16:43;;;;;;;3.17;2.10;;;6.60;99.90;;;;;;4984887;28;20678;-77
2021/10/17 05:19:09;;;;;;;5.23;2.50;;;6.70;99.90;;;;;;4985001;28;20195;-76
2021/10/17 05:21:35;;;;;;;3.83;2.20;;;6.70;99.90;;;;;;4984906;28;20184;-76
2021/10/17 05:24:00;;;;;;;3.77;2.10;;;6.70;99.90;;;;;;4985340;28;20195;-76
2021/10/17 05:26:26;;;;;;;5.40;2.67;;;6.70;99.90;;;;;;4985477;28;20207;-77
2021/10/17 05:28:51;;;;;;;8.50;2.50;;;6.70;99.90;;;;;;4985065;28;20275;-77
2021/10/17 05:31:17;;;;;;;5.17;2.33;;;6.70;99.90;;;;;;4983493;28;20246;-76
2021/10/17 05:33:44;;;;;;;4.30;2.50;;;6.70;99.90;;;;;;4984594;28;20670;-76
2021/10/17 05:36:10;;;;;;;5.77;2.60;;;6.70;99.90;;;;;;4985244;28;20208;-77
2021/10/17 05:38:35;;;;;;;6.73;2.87;;;6.80;99.90;;;;;;4983902;28;20187;-77
2021/10/17 05:41:01;;;;;;;4.93;2.50;;;6.80;99.90;;;;;;4985252;28;20185;-77
2021/10/17 05:43:27;;;;;;;8.47;2.50;;;6.80;99.90;;;;;;4985133;28;20688;-77
2021/10/17 05:45:52;;;;;;;5.57;3.53;;;6.80;99.90;;;;;;4985052;28;20208;-77
2021/10/17 05:48:18;;;;;;;5.00;3.17;;;6.80;99.90;;;;;;4985301;28;20188;-76
2021/10/17 05:50:43;;;;;;;4.27;2.43;;;6.90;99.90;;;;;;4984966;28;20188;-76
2021/10/17 05:53:09;;;;;;;8.83;2.80;;;6.90;99.90;;;;;;4984695;28;20551;-77
2021/10/17 05:55:34;;;;;;;5.57;3.50;;;6.80;99.90;;;;;;4985085;28;20621;-77
2021/10/17 05:58:00;;;;;;;5.27;2.90;;;6.90;99.90;;;;;;4987084;28;20295;-77
2021/10/17 06:00:26;;;;;;;5.60;2.87;;;6.90;99.90;;;;;;4988604;28;20180;-76
2021/10/17 06:02:51;;;;;;;3.87;2.47;;;6.90;99.90;;;;;;4989380;28;21155;-75
2021/10/17 06:05:17;;;;;;;2.70;2.40;;;6.90;99.90;;;;;;5003350;28;20206;-77
2021/10/17 06:07:43;;;;;;;6.67;3.20;;;6.90;99.90;;;;;;4988622;28;20281;-78
2021/10/17 06:10:12;;;;;;;6.40;2.80;;;6.90;99.90;;;;;;4988497;28;20734;-77
2021/10/17 06:12:39;;;;;;;4.97;2.87;;;6.90;99.90;;;;;;4988235;28;20192;-77
2021/10/17 06:15:06;;;;;;;4.43;3.03;;;6.90;99.90;;;;;;4988058;28;20238;-77
2021/10/17 06:17:32;;;;;;;5.13;3.20;;;7.00;99.90;;;;;;4988809;28;20208;-78
2021/10/17 06:19:58;;;;;;;4.60;2.80;;;6.90;99.90;;;;;;4988126;28;20265;-77
2021/10/17 06:22:23;;;;;;;7.17;2.93;;;7.00;99.90;;;;;;4989018;28;20271;-77
2021/10/17 06:24:49;;;;;;;4.23;2.40;;;7.00;99.90;;;;;;4988053;28;20635;-77
2021/10/17 06:27:14;;;;;;;4.97;2.60;;;7.00;99.90;;;;;;4988302;28;20708;-77
2021/10/17 06:29:40;;;;;;;2.70;2.37;;;7.00;99.90;;;;;;4988016;28;20238;-77
2021/10/17 06:32:06;;;;;;;5.43;2.40;;;7.10;99.90;;;;;;4986977;28;21216;-77
2021/10/17 06:34:31;;;;;;;6.50;2.50;;;7.10;99.90;;;;;;4988931;28;20192;-78
2021/10/17 06:36:57;;;;;;;3.97;2.43;;;7.20;99.90;;;;;;4987511;28;20537;-78
2021/10/17 06:39:22;;;;;;;5.47;2.57;;;7.20;99.90;;;;;;4988691;28;20192;-77
2021/10/17 06:41:48;;;;;;;4.00;2.33;;;7.20;99.90;;;;;;4988043;28;20223;-78
2021/10/17 06:44:15;;;;;;;3.20;2.50;;;7.30;99.90;;;;;;4988454;28;20246;-77
2021/10/17 06:46:41;;;;;;;3.33;2.40;;;7.30;99.90;;;;;;4986845;28;20212;-77
2021/10/17 06:49:07;;;;;;;4.00;2.60;;;7.40;99.90;;;;;;4987805;28;20768;-77
2021/10/17 06:51:32;;;;;;;3.63;2.63;;;7.40;99.90;;;;;;4988359;28;20196;-80
2021/10/17 06:53:58;;;;;;;5.50;2.53;;;7.40;99.90;;;;;;4982217;28;20196;-77
2021/10/17 06:56:23;;;;;;;5.70;2.40;;;7.50;99.90;;;;;;4984414;28;20216;-77
2021/10/17 06:58:49;;;;;;;5.83;2.60;;;7.50;99.90;;;;;;4982587;28;20188;-78
2021/10/17 07:01:14;;;;;;;4.90;2.53;;;7.50;99.90;;;;;;4983884;28;20188;-77
2021/10/17 07:03:40;;;;;;;7.40;3.07;;;7.60;99.90;;;;;;4984538;28;20211;-77
2021/10/17 07:06:06;;;;;;;5.07;2.77;;;7.60;99.90;;;;;;4984787;28;20208;-77
2021/10/17 07:08:32;;;;;;;5.33;3.00;;;7.70;99.90;;;;;;4984772;28;20231;-77
2021/10/17 07:10:59;;;;;;;4.27;2.57;;;7.70;99.90;;;;;;4983834;28;20607;-77
2021/10/17 07:13:25;;;;;;;4.57;2.50;;;7.70;99.90;;;;;;4983795;28;20284;-77
2021/10/17 07:15:50;;;;;;;6.53;2.40;;;7.80;99.90;;;;;;4984608;28;20717;-77
2021/10/17 07:18:16;;;;;;;5.43;2.63;;;7.80;99.90;;;;;;4982615;28;20208;-77
2021/10/17 07:20:41;;;;;;;5.47;2.43;;;7.90;99.90;;;;;;4984417;28;20674;-77
2021/10/17 07:23:07;;;;;;;6.10;2.60;;;8.00;99.90;;;;;;4984607;28;20181;-78
2021/10/17 07:25:33;;;;;;;6.17;2.47;;;8.20;99.90;;;;;;4983411;28;20216;-77
2021/10/17 07:27:58;;;;;;;4.60;2.30;;;8.20;99.90;;;;;;4982235;28;20192;-77
2021/10/17 07:30:25;;;;;;;3.70;2.37;;;8.30;99.90;;;;;;4984349;28;20234;-77
2021/10/17 07:32:51;;;;;;;6.23;2.87;;;8.40;99.90;;;;;;4984148;28;20180;-77
2021/10/17 07:35:17;;;;;;;4.47;2.63;;;8.50;99.90;;;;;;4982838;28;20216;-77
2021/10/17 07:37:43;;;;;;;4.07;2.10;;;8.60;99.90;;;;;;4984187;28;20212;-77
2021/10/17 07:40:09;;;;;;;3.00;2.33;;;8.60;99.90;;;;;;4983863;28;20211;-77
2021/10/17 07:42:35;;;;;;;5.90;2.30;;;8.80;99.90;;;;;;4984563;28;20188;-77
2021/10/17 07:45:01;;;;;;;3.47;2.40;;;8.90;99.90;;;;;;4984331;28;20534;-77
2021/10/17 07:47:27;;;;;;;4.97;2.57;;;9.00;99.90;;;;;;4984362;28;20198;-77
2021/10/17 07:49:53;;;;;;;4.83;2.50;;;9.20;99.90;;;;;;4984201;28;20193;-77
2021/10/17 07:52:18;;;;;;;7.87;2.83;;;9.40;99.90;;;;;;4983571;28;20230;-77
2021/10/17 07:54:44;;;;;;;6.83;2.47;;;9.60;99.90;;;;;;4983705;28;20619;-77
2021/10/17 07:57:11;;;;;;;6.10;2.80;;;9.80;99.90;;;;;;4982318;28;20424;-77
2021/10/17 07:59:37;;;;;;;6.47;2.30;;;9.90;99.90;;;;;;4983188;28;20183;-77
2021/10/17 08:02:03;;;;;;;5.53;2.50;;;10.10;99.90;;;;;;4984439;28;20639;-73
2021/10/17 08:04:28;;;;;;;4.97;2.28;;;10.20;99.90;;;;;;4982279;28;20180;-78
2021/10/17 08:06:54;;;;;;;2.90;1.60;;;10.40;99.90;;;;;;4984034;28;20262;-75
2021/10/17 08:09:20;;;;;;;4.03;2.00;;;10.60;99.90;;;;;;4983200;28;20191;-80
2021/10/17 08:11:45;;;;;;;5.75;2.40;;;10.80;99.90;;;;;;4985513;28;20196;-78
2021/10/17 08:14:11;;;;;;;3.63;2.03;;;10.90;99.90;;;;;;4983953;28;20287;-78
2021/10/17 08:16:37;;;;;;;4.85;2.10;;;11.10;99.90;;;;;;4982272;28;20215;-75
2021/10/17 08:19:03;;;;;;;5.30;2.10;;;11.10;99.90;;;;;;4979389;28;20259;-75
2021/10/17 08:21:30;;;;;;;3.38;1.58;;;11.10;99.90;;;;;;4978013;28;20184;-76
2021/10/17 08:23:57;;;;;;;4.13;2.30;;;11.20;99.90;;;;;;4978361;28;20177;-75
2021/10/17 08:26:24;;;;;;;2.35;1.77;;;11.30;99.90;;;;;;4976814;28;20918;-75
2021/10/17 08:28:51;;;;;;;3.78;1.73;;;11.40;99.90;;;;;;4979104;28;20248;-74
2021/10/17 08:31:18;;;;;;;3.70;1.75;;;11.40;99.90;;;;;;4975597;28;20202;-75
2021/10/17 08:33:44;;;;;;;3.40;1.85;;;11.50;99.90;;;;;;4979525;28;20176;-75
2021/10/17 08:36:11;;;;;;;4.10;2.05;;;11.50;99.90;;;;;;4976461;28;20208;-74
2021/10/17 08:38:38;;;;;;;3.35;1.50;;;11.50;99.90;;;;;;4980420;28;20176;-73
2021/10/17 08:41:04;;;;;;;3.35;1.55;;;11.40;99.90;;;;;;4979602;28;20688;-76
2021/10/17 08:43:31;;;;;;;3.58;2.00;;;11.30;99.90;;;;;;4983753;28;20184;-79
2021/10/17 08:45:59;;;;;;;3.90;1.60;;;11.30;99.90;;;;;;4978710;28;20232;-76
2021/10/17 08:48:31;;;;;;;4.40;1.88;;;11.30;99.90;;;;;;4977216;28;21191;-76
2021/10/17 08:50:59;;;;;;;3.63;1.98;;;11.30;99.90;;;;;;4971942;28;20173;-76
2021/10/17 08:53:26;;;;;;;4.25;2.45;;;11.30;99.90;;;;;;4977235;28;20183;-76
2021/10/17 08:55:52;;;;;;;6.47;3.25;;;11.40;99.90;;;;;;4977882;28;20311;-76
2021/10/17 08:58:19;;;;;;;6.43;2.90;;;11.50;99.90;;;;;;4992545;28;20226;-77
2021/10/17 09:00:45;;;;;;;3.60;2.05;;;11.40;99.90;;;;;;4977652;28;20199;-77
2021/10/17 09:03:11;;;;;;;7.38;2.30;;;11.50;99.90;;;;;;4980395;28;20192;-78
2021/10/17 09:05:39;;;;;;;5.35;2.30;;;11.50;99.90;;;;;;4980008;28;20196;-77
2021/10/17 09:08:07;;;;;;;5.22;2.00;;;11.40;99.90;;;;;;4977634;28;20181;-75
2021/10/17 09:10:34;;;;;;;4.80;2.20;;;11.40;99.90;;;;;;4977734;28;20199;-75
2021/10/17 09:13:11;;;;;;;4.07;1.90;;;11.30;99.90;;;;;;4978739;28;20404;-75
2021/10/17 09:15:37;;;;;;;7.47;2.13;;;11.40;99.90;;;;;;4978393;28;20282;-75
2021/10/17 09:18:07;;;;;;;6.57;2.60;;;11.40;99.90;;;;;;4975822;28;20212;-77
2021/10/17 09:20:52;;;;;;;5.40;2.72;;;11.50;99.90;;;;;;4980956;28;20172;-79
2021/10/17 09:23:21;;;;;;;3.40;2.10;;;11.60;99.90;;;;;;4980144;28;20211;-79
2021/10/17 09:25:48;;;;;;;3.92;1.55;;;11.60;99.90;;;;;;4980288;28;20208;-78
2021/10/17 09:28:15;;;;;;;3.60;1.60;;;11.70;99.90;;;;;;4978849;28;20405;-81
2021/10/17 09:30:41;;;;;;;4.70;1.73;;;11.80;99.90;;;;;;4981631;28;20184;-79
2021/10/17 09:33:11;;;;;;;3.13;1.67;;;11.80;99.90;;;;;;4980675;28;20199;-79
2021/10/17 09:35:37;;;;;;;4.55;1.85;;;11.70;99.90;;;;;;4984372;28;20223;-79
2021/10/17 09:38:03;;;;;;;3.40;2.33;;;11.80;99.90;;;;;;4984103;28;20217;-78
2021/10/17 09:40:29;;;;;;;4.18;1.92;;;11.90;99.90;;;;;;4984798;28;20207;-80
2021/10/17 09:43:12;;;;;;;7.95;3.20;;;11.80;99.90;;;;;;4985073;28;20655;-78
2021/10/17 09:45:39;;;;;;;3.83;1.83;;;11.80;99.90;;;;;;4983538;28;20223;-79
2021/10/17 09:48:05;;;;;;;5.50;1.85;;;11.70;99.90;;;;;;4985899;28;20292;-78
2021/10/17 09:50:31;;;;;;;4.25;1.67;;;11.70;99.90;;;;;;4986592;28;20708;-80
2021/10/17 09:52:57;;;;;;;2.28;1.70;;;11.70;99.90;;;;;;4987245;28;20212;-80
2021/10/17 09:55:23;;;;;;;4.97;1.80;;;11.70;99.90;;;;;;4988370;28;20209;-80
2021/10/17 09:57:49;;;;;;;3.53;1.70;;;11.70;99.90;;;;;;4987315;28;20246;-79
2021/10/17 10:00:15;;;;;;;3.70;1.60;;;11.70;99.90;;;;;;4987763;28;20235;-80
2021/10/17 10:02:48;;;;;;;2.83;1.80;;;11.60;99.90;;;;;;4988055;28;20555;-80
2021/10/17 10:05:22;;;;;;;3.70;2.03;;;11.50;99.90;;;;;;4987186;28;20176;-80
2021/10/17 10:07:50;;;;;;;4.32;2.13;;;11.60;99.90;;;;;;5000531;28;20204;-80
2021/10/17 10:10:18;;;;;;;3.78;1.70;;;11.80;99.90;;;;;;4983866;28;20176;-79
2021/10/17 10:12:45;;;;;;;3.42;1.92;;;11.60;99.90;;;;;;4984242;28;20191;-80
2021/10/17 10:15:11;;;;;;;3.65;2.20;;;11.50;99.90;;;;;;4985203;28;20271;-79
2021/10/17 10:17:41;;;;;;;4.20;2.30;;;11.50;99.90;;;;;;4986056;28;20353;-79
2021/10/17 10:20:08;;;;;;;3.67;1.83;;;11.50;99.90;;;;;;4985300;28;20184;-79
2021/10/17 10:22:34;;;;;;;5.00;2.38;;;11.50;99.90;;;;;;4983391;28;20180;-78
2021/10/17 10:25:00;;;;;;;3.83;2.50;;;11.50;99.90;;;;;;4982441;28;20184;-79
2021/10/17 10:27:27;;;;;;;4.00;1.83;;;11.50;99.90;;;;;;4986122;28;20188;-79
2021/10/17 10:30:29;;;;;;;3.63;1.95;;;11.70;99.90;;;;;;4985304;28;20180;-80
2021/10/17 10:33:15;;;;;;;3.17;1.95;;;11.80;99.90;;;;;;4982539;28;20184;-77
2021/10/17 10:36:04;;;;;;;7.53;2.30;;;11.80;99.90;;;;;;4980252;28;20227;-76
2021/10/17 10:38:52;;;;;;;3.75;2.17;;;11.80;99.90;;;;;;4981247;28;20188;-76
2021/10/17 10:41:28;;;;;;;4.63;1.58;;;11.70;99.90;;;;;;4981586;28;20188;-76
2021/10/17 10:44:13;;;;;;;3.90;1.73;;;11.70;99.90;;;;;;4979706;28;20588;-76
2021/10/17 10:46:39;;;;;;;3.13;1.77;;;11.70;99.90;;;;;;4980942;28;20208;-76
2021/10/17 10:49:05;;;;;;;4.55;1.55;;;11.70;99.90;;;;;;4981257;28;20192;-76
2021/10/17 10:51:46;;;;;;;10.98;2.85;;;11.60;99.90;;;;;;4980659;28;20188;-77
2021/10/17 10:54:24;;;;;;;3.72;1.83;;;11.60;99.90;;;;;;4980053;28;20207;-76
2021/10/17 10:56:52;;;;;;;3.90;1.80;;;11.80;99.90;;;;;;4995561;28;20311;-76
2021/10/17 10:59:21;;;;;;;2.70;1.42;;;11.90;99.90;;;;;;4980782;28;20191;-76
2021/10/17 11:02:17;;;;;;;2.65;1.40;;;11.90;99.90;;;;;;4980376;28;20176;-76
2021/10/17 11:04:44;;;;;;;2.63;1.60;;;11.90;99.90;;;;;;4980679;28;20191;-77
2021/10/17 11:07:21;;;;;;;5.10;1.45;;;12.20;99.90;;;;;;4980550;28;20685;-76
2021/10/17 11:09:48;;;;;;;3.90;1.60;;;12.30;99.90;;;;;;4980466;28;20188;-76
2021/10/17 11:12:46;;;;;;;3.85;1.77;;;12.40;99.90;;;;;;4981283;28;20181;-76
2021/10/17 11:15:17;;;;;;;4.20;2.60;;;12.50;99.90;;;;;;4980542;28;20180;-76
2021/10/17 11:17:58;;;;;;;3.42;1.50;;;12.60;99.90;;;;;;4980861;28;20611;-76
2021/10/17 11:20:26;;;;;;;2.50;1.65;;;12.70;99.90;;;;;;4995325;28;20533;-77
2021/10/17 11:22:55;;;;;;;3.13;1.67;;;12.70;99.90;;;;;;4981292;28;20649;-76
2021/10/17 11:25:24;;;;;;;4.55;2.40;;;12.80;99.90;;;;;;4979641;28;20200;-77
2021/10/17 11:27:50;;;;;;;4.43;1.80;;;12.90;99.90;;;;;;4979180;28;20270;-77
2021/10/17 11:30:26;;;;;;;3.33;1.75;;;12.90;99.90;;;;;;4979853;28;20326;-76
2021/10/17 11:32:53;;;;;;;3.67;1.60;;;12.80;99.90;;;;;;4980518;28;20282;-76
2021/10/17 11:35:35;;;;;;;3.55;1.60;;;12.80;99.90;;;;;;4980081;28;20212;-76
2021/10/17 11:38:04;;;;;;;5.38;2.40;;;12.80;99.90;;;;;;4980602;28;20200;-76
2021/10/17 11:40:31;;;;;;;6.03;1.75;;;12.70;99.90;;;;;;4979987;28;20188;-76
2021/10/17 11:42:59;;;;;;;4.15;1.90;;;12.70;99.90;;;;;;4979897;28;20195;-76
2021/10/17 11:45:28;;;;;;;2.22;1.60;;;12.70;99.90;;;;;;4979719;28;20212;-76
2021/10/17 11:48:01;;;;;;;3.85;1.70;;;12.70;99.90;;;;;;4978243;28;20184;-77
2021/10/17 11:50:30;;;;;;;2.95;1.73;;;12.70;99.90;;;;;;4979752;28;20246;-76
2021/10/17 11:52:57;;;;;;;5.60;2.67;;;12.70;99.90;;;;;;4978729;28;20196;-76
2021/10/17 11:55:45;;;;;;;5.35;1.80;;;12.80;99.90;;;;;;4994111;28;20258;-76
2021/10/17 11:58:22;;;;;;;4.35;1.92;;;12.90;99.90;;;;;;4979932;28;20220;-77
2021/10/17 12:00:51;;;;;;;4.80;1.90;;;12.90;99.90;;;;;;4979705;28;20253;-76
2021/10/17 12:03:21;;;;;;;2.95;1.83;;;12.90;99.90;;;;;;4979836;28;21032;-77
2021/10/17 12:05:48;;;;;;;4.97;1.95;;;12.90;99.90;;;;;;4979386;28;20502;-76
2021/10/17 12:08:23;;;;;;;3.38;1.70;;;13.10;99.90;;;;;;4980054;28;20440;-77
2021/10/17 12:11:09;;;;;;;4.00;1.63;;;13.20;99.90;;;;;;4978194;28;20623;-76
2021/10/17 12:13:46;;;;;;;4.70;1.70;;;13.20;99.90;;;;;;4977759;28;20199;-76
2021/10/17 12:16:17;;;;;;;3.22;1.58;;;13.10;99.90;;;;;;4977712;28;20375;-76
2021/10/17 12:18:48;;;;;;;4.45;2.00;;;13.20;99.90;;;;;;4979235;28;20347;-75
2021/10/17 12:21:18;;;;;;;2.33;1.60;;;13.20;99.90;;;;;;4979296;28;20650;-77
2021/10/17 12:23:46;;;;;;;2.03;1.30;;;13.30;99.90;;;;;;4978110;28;21310;-76
2021/10/17 12:26:17;;;;;;;3.53;1.52;;;13.40;99.90;;;;;;4977382;28;20287;-76
2021/10/17 12:28:42;;;;;;;3.33;1.35;;;13.40;99.90;;;;;;4979322;28;20259;-76
2021/10/17 12:31:08;;;;;;;3.67;1.58;;;13.30;99.90;;;;;;4977791;28;20184;-77
2021/10/17 12:33:41;;;;;;;2.92;1.63;;;13.30;99.90;;;;;;4979653;28;20188;-76
2021/10/17 12:36:19;;;;;;;5.88;2.13;;;13.40;99.90;;;;;;4978784;28;20287;-76
2021/10/17 12:38:45;;;;;;;3.75;2.33;;;13.50;99.90;;;;;;4978396;28;20211;-76
2021/10/17 12:41:15;;;;;;;3.92;1.80;;;13.40;99.90;;;;;;4978981;28;20186;-76
2021/10/17 12:43:48;;;;;;;3.13;1.42;;;13.30;99.90;;;;;;4978594;28;20368;-76
2021/10/17 12:46:20;;;;;;;2.50;1.70;;;13.20;99.90;;;;;;4978385;28;20681;-76
2021/10/17 12:48:49;;;;;;;3.53;1.92;;;13.30;99.90;;;;;;4978901;28;20199;-76
2021/10/17 12:51:33;;;;;;;4.00;2.10;;;13.40;99.90;;;;;;4977130;28;20181;-76
2021/10/17 12:54:04;;;;;;;2.40;1.67;;;13.40;99.90;;;;;;4978771;28;20431;-76